Time;durP1;ratioP1;P1;durP2;ratioP2;P2;SDS_P1;SDS_P2;PMS_P1;PMS_P2;Temp;Humidity;BMP_temperature;BMP_pressure;BME280_temperature;BME280_humidity;BME280_pressure;Samples;Min_cycle;Max_cycle;Signal;HPM_P1;HPM_P2
2022/11/06 00:01:12;;;;;;;0.88;0.30;;;;;;;15.64;87.45;101530.31;4994839;28;20029;-46
2022/11/06 00:03:40;;;;;;;1.13;0.30;;;;;;;15.65;88.00;101539.22;4985917;28;20038;-51
2022/11/06 00:08:52;;;;;;;1.13;0.30;;;;;;;15.68;87.28;101522.59;4991075;28;20053;-47
2022/11/06 00:11:18;;;;;;;0.45;0.30;;;;;;;15.59;87.00;101527.41;4976959;28;20097;-48
2022/11/06 00:13:46;;;;;;;0.50;0.30;;;;;;;15.71;87.09;101522.16;4995125;28;20053;-48
2022/11/06 00:16:13;;;;;;;2.17;0.22;;;;;;;15.64;87.18;101516.00;4996364;28;20400;-50
2022/11/06 00:18:41;;;;;;;1.13;0.40;;;;;;;15.67;87.17;101519.09;4996001;28;20041;-49
2022/11/06 00:21:12;;;;;;;0.98;0.28;;;;;;;15.59;87.45;101524.72;4996236;23;20504;-47
2022/11/06 00:23:39;;;;;;;0.55;0.30;;;;;;;15.65;87.23;101521.16;4960148;28;20035;-46
2022/11/06 00:26:10;;;;;;;0.35;0.20;;;;;;;15.57;87.19;101519.56;4974790;28;20127;-49
2022/11/06 00:28:36;;;;;;;1.45;0.30;;;;;;;15.55;87.55;101512.75;4966242;28;20019;-49
2022/11/06 00:31:08;;;;;;;1.40;0.50;;;;;;;15.48;88.43;101520.88;4976352;28;20023;-47
2022/11/06 00:33:34;;;;;;;1.98;0.50;;;;;;;15.49;88.66;101524.41;4976984;28;20031;-45
2022/11/06 00:36:06;;;;;;;1.00;0.40;;;;;;;15.39;88.79;101527.63;4968653;28;20356;-46
2022/11/06 00:38:33;;;;;;;0.68;0.35;;;;;;;15.49;88.82;101530.66;4972692;28;20034;-49
2022/11/06 00:41:04;;;;;;;2.38;0.57;;;;;;;15.30;90.10;101520.84;4978359;28;20478;-47
2022/11/06 00:43:31;;;;;;;5.05;0.88;;;;;;;15.44;89.42;101519.69;4972494;28;20037;-48
2022/11/06 00:46:12;;;;;;;1.02;0.52;;;;;;;15.44;89.09;101521.56;4964648;28;20027;-45
2022/11/06 00:48:39;;;;;;;0.98;0.68;;;;;;;15.35;89.62;101523.72;4962248;28;20023;-48
2022/11/06 00:51:11;;;;;;;1.77;1.17;;;;;;;15.26;89.93;101525.03;4973006;28;20088;-47
2022/11/06 00:53:38;;;;;;;3.00;1.60;;;;;;;15.40;89.41;101523.06;4976909;28;20049;-50
2022/11/06 00:56:18;;;;;;;3.80;1.50;;;;;;;15.32;89.64;101525.00;4965543;28;20049;-48
2022/11/06 00:58:46;;;;;;;3.20;2.58;;;;;;;15.33;89.90;101515.03;4956927;28;20023;-49
2022/11/06 01:01:21;;;;;;;4.80;2.30;;;;;;;15.11;91.22;101511.06;4968084;28;20453;-45
2022/11/06 01:03:52;;;;;;;3.88;1.83;;;;;;;15.15;90.39;101502.28;4956186;28;20051;-46
2022/11/06 01:06:21;;;;;;;6.18;1.30;;;;;;;15.12;91.00;101502.75;4954950;28;20408;-47
2022/11/06 01:08:49;;;;;;;2.95;1.40;;;;;;;15.06;91.60;101511.72;4961438;28;20037;-44
2022/11/06 01:11:22;;;;;;;2.28;1.23;;;;;;;15.13;90.88;101506.25;4975668;28;20030;-46
2022/11/06 01:13:50;;;;;;;1.70;0.90;;;;;;;15.06;91.25;101509.00;4972169;28;20085;-47
2022/11/06 01:16:18;;;;;;;5.10;1.40;;;;;;;15.02;91.26;101497.84;4955875;28;20377;-46
2022/11/06 01:18:44;;;;;;;2.97;1.85;;;;;;;15.13;91.49;101490.09;4956083;28;20039;-48
2022/11/06 01:21:14;;;;;;;2.97;2.10;;;;;;;15.08;91.84;101496.13;4955589;28;20043;-50
2022/11/06 01:23:41;;;;;;;3.42;2.22;;;;;;;15.07;91.69;101497.19;4961236;28;20037;-51
2022/11/06 01:26:09;;;;;;;6.40;3.45;;;;;;;14.98;92.30;101501.19;4967857;28;20559;-44
2022/11/06 01:28:37;;;;;;;7.82;3.70;;;;;;;15.02;91.63;101489.75;4958020;28;20039;-45
2022/11/06 01:31:06;;;;;;;4.88;3.42;;;;;;;14.98;92.38;101495.78;4956167;28;20034;-48
2022/11/06 01:33:32;;;;;;;3.28;2.60;;;;;;;14.97;92.36;101496.84;4958405;28;20058;-46
2022/11/06 01:35:58;;;;;;;6.13;3.00;;;;;;;15.01;91.91;101496.19;4960364;28;20035;-45
2022/11/06 01:38:26;;;;;;;4.95;3.00;;;;;;;14.91;92.59;101497.72;4974584;28;20478;-48
2022/11/06 01:40:52;;;;;;;4.80;2.90;;;;;;;14.99;92.53;101489.34;4975306;28;20395;-48
2022/11/06 01:43:24;;;;;;;6.15;2.88;;;;;;;15.05;92.06;101486.63;4966732;28;20034;-46
2022/11/06 01:45:54;;;;;;;4.45;3.17;;;;;;;15.01;92.03;101480.00;4964625;28;20082;-43
2022/11/06 01:48:25;;;;;;;3.45;3.13;;;;;;;14.91;91.92;101476.97;4975116;28;20114;-46
2022/11/06 01:50:55;;;;;;;5.45;3.53;;;;;;;14.94;92.52;101479.25;4974802;28;20475;-47
2022/11/06 01:53:23;;;;;;;7.28;3.97;;;;;;;14.94;92.66;101478.44;4975126;28;20507;-46
2022/11/06 01:55:54;;;;;;;6.55;3.97;;;;;;;14.98;92.86;101475.03;4974998;28;20494;-45
2022/11/06 01:58:24;;;;;;;5.35;3.10;;;;;;;14.93;92.92;101472.19;4974597;28;20034;-46
2022/11/06 02:00:50;;;;;;;3.80;2.92;;;;;;;14.87;93.41;101474.94;4975021;28;20030;-49
2022/11/06 02:03:17;;;;;;;4.13;2.38;;;;;;;14.93;93.45;101474.88;4956517;28;20106;-47
2022/11/06 02:05:44;;;;;;;3.00;2.17;;;;;;;14.98;93.29;101471.53;4955546;29;20078;-47
2022/11/06 02:08:14;;;;;;;2.42;2.08;;;;;;;14.95;93.40;101464.72;4956164;28;20062;-46
2022/11/06 02:10:41;;;;;;;2.35;1.98;;;;;;;14.96;93.49;101455.59;4974702;28;20081;-46
2022/11/06 02:13:36;;;;;;;2.20;1.70;;;;;;;15.01;93.31;101455.75;4965507;28;20023;-48
2022/11/06 02:16:14;;;;;;;2.10;1.85;;;;;;;14.95;93.72;101447.72;4957254;28;20049;-49
2022/11/06 02:18:48;;;;;;;1.33;1.20;;;;;;;14.96;93.99;101447.50;4962091;28;20062;-51
2022/11/06 02:21:30;;;;;;;3.97;1.70;;;;;;;15.02;93.61;101457.41;4968723;28;20051;-51
2022/11/06 02:24:36;;;;;;;2.60;1.70;;;;;;;14.95;94.12;101463.91;4955387;28;20043;-50
2022/11/06 02:27:16;;;;;;;2.58;1.45;;;;;;;15.01;93.76;101471.94;4969342;28;20403;-51
2022/11/06 02:30:08;;;;;;;1.67;1.13;;;;;;;15.21;92.81;101469.06;4973989;28;20069;-49
2022/11/06 02:32:40;;;;;;;2.63;1.25;;;;;;;15.10;92.93;101469.75;4955291;28;20126;-51
2022/11/06 02:35:32;;;;;;;2.00;1.20;;;;;;;15.10;93.03;101475.16;4969461;28;20118;-49
2022/11/06 02:38:06;;;;;;;3.03;1.50;;;;;;;15.09;93.39;101457.34;4975794;28;20063;-51
2022/11/06 02:40:37;;;;;;;2.03;1.52;;;;;;;15.11;93.29;101460.66;4967562;28;20042;-48
2022/11/06 02:43:06;;;;;;;4.38;2.30;;;;;;;15.16;93.10;101451.91;4971512;28;20066;-50
2022/11/06 02:45:42;;;;;;;1.92;1.75;;;;;;;15.14;93.35;101462.06;4958307;28;20481;-51
2022/11/06 02:48:12;;;;;;;1.85;1.75;;;;;;;15.18;93.38;101471.38;4973342;28;20110;-50
2022/11/06 02:50:44;;;;;;;2.78;1.80;;;;;;;15.18;93.74;101471.38;4969727;28;20031;-52
2022/11/06 02:53:13;;;;;;;3.40;3.10;;;;;;;15.03;94.86;101472.53;4964348;28;20471;-50
2022/11/06 02:55:47;;;;;;;5.68;3.70;;;;;;;15.10;94.64;101466.25;4972381;28;20402;-51
2022/11/06 02:58:30;;;;;;;4.90;4.38;;;;;;;15.19;94.14;101456.84;4964987;28;20030;-52
2022/11/06 03:01:05;;;;;;;7.55;5.20;;;;;;;15.22;93.32;101456.41;4967854;28;20046;-52
2022/11/06 03:03:35;;;;;;;5.53;5.03;;;;;;;15.30;93.37;101451.53;4967292;28;20143;-51
2022/11/06 03:06:16;;;;;;;5.97;5.38;;;;;;;15.28;93.51;101455.53;4955735;28;20066;-51
2022/11/06 03:08:55;;;;;;;7.45;5.80;;;;;;;15.20;93.59;101445.00;4958477;28;20484;-48
2022/11/06 03:11:42;;;;;;;5.80;5.25;;;;;;;15.20;93.89;101442.31;4968288;28;20042;-50
2022/11/06 03:14:18;;;;;;;6.53;5.70;;;;;;;15.16;94.08;101446.50;4969544;28;20041;-49
2022/11/06 03:17:12;;;;;;;5.47;4.97;;;;;;;15.10;94.91;101458.16;4985031;28;20042;-47
2022/11/06 03:19:50;;;;;;;6.20;5.13;;;;;;;15.24;94.06;101457.00;4963469;28;20101;-49
2022/11/06 03:22:43;;;;;;;8.98;5.95;;;;;;;15.24;93.99;101452.44;4964208;28;20057;-48
2022/11/06 03:25:53;;;;;;;6.43;5.43;;;;;;;15.19;94.78;101449.56;4947992;29;20547;-50
2022/11/06 03:28:44;;;;;;;9.75;5.80;;;;;;;15.25;94.25;101447.84;4929923;29;20054;-48
2022/11/06 03:31:16;;;;;;;5.65;5.05;;;;;;;15.20;94.08;101450.41;4950509;28;20027;-48
2022/11/06 03:33:50;;;;;;;6.90;5.38;;;;;;;15.20;94.05;101442.31;4951626;28;20031;-48
2022/11/06 03:36:31;;;;;;;6.87;6.17;;;;;;;15.13;94.38;101444.25;4951294;29;20027;-46
2022/11/06 03:39:05;;;;;;;6.55;5.93;;;;;;;15.23;94.10;101444.56;4943305;29;20290;-46
2022/11/06 03:42:00;;;;;;;8.32;7.30;;;;;;;15.36;93.34;101446.31;4947035;28;20059;-46
2022/11/06 03:44:27;;;;;;;7.40;6.68;;;;;;;15.39;93.46;101446.69;4946740;29;20135;-49
2022/11/06 03:47:05;;;;;;;10.77;8.20;;;;;;;15.44;93.35;101444.16;4962176;28;20046;-47
2022/11/06 03:49:38;;;;;;;8.52;6.97;;;;;;;15.34;93.72;101441.13;4954311;28;20039;-47
2022/11/06 03:52:19;;;;;;;5.28;4.78;;;;;;;15.42;93.01;101426.53;4967871;28;20038;-48
2022/11/06 03:55:10;;;;;;;7.18;4.10;;;;;;;15.42;92.54;101427.34;4947747;29;20088;-50
2022/11/06 03:57:53;;;;;;;5.07;3.67;;;;;;;15.49;92.18;101427.28;4972412;28;20037;-49
2022/11/06 04:00:20;;;;;;;3.80;3.00;;;;;;;15.45;92.51;101418.81;4955663;28;20031;-50
2022/11/06 04:03:03;;;;;;;4.50;2.95;;;;;;;15.45;92.39;101421.53;4968950;28;20074;-47
2022/11/06 04:05:34;;;;;;;4.10;3.00;;;;;;;15.40;92.40;101429.47;4953799;28;20039;-46
2022/11/06 04:16:28;;;;;;;4.80;3.67;;;;;;;15.23;92.37;101417.59;4956315;28;20058;-47
2022/11/06 04:18:54;;;;;;;5.80;3.22;;;;;;;15.26;91.64;101412.56;4968447;28;20069;-51
2022/11/06 04:21:47;;;;;;;3.53;2.65;;;;;;;15.09;92.26;101418.75;4972135;28;20506;-47
2022/11/06 04:27:38;;;;;;;4.82;2.45;;;;;;;15.09;91.90;101416.88;4965556;28;20058;-51
2022/11/06 04:30:13;;;;;;;6.03;3.08;;;;;;;15.10;91.64;101415.00;4952754;28;20496;-50
2022/11/06 04:33:01;;;;;;;6.50;3.42;;;;;;;15.01;92.12;101415.31;4952205;28;20053;-50
2022/11/06 04:35:52;;;;;;;4.15;2.42;;;;;;;15.00;92.18;101412.84;4962723;28;20492;-49
2022/11/06 04:38:35;;;;;;;3.95;2.30;;;;;;;15.02;91.62;101411.56;4961166;28;20027;-47
2022/11/06 04:41:16;;;;;;;4.25;2.20;;;;;;;15.01;91.85;101418.00;4955206;28;20043;-50
2022/11/06 04:43:59;;;;;;;3.80;2.10;;;;;;;14.87;92.89;101412.94;4964902;28;20054;-46
2022/11/06 04:46:34;;;;;;;4.45;2.03;;;;;;;14.89;92.94;101414.38;4958641;28;20058;-46
2022/11/06 04:49:04;;;;;;;4.45;1.95;;;;;;;14.87;93.06;101419.16;4962659;28;20134;-45
2022/11/06 04:51:34;;;;;;;3.40;1.35;;;;;;;14.90;93.28;101426.00;4962816;28;20074;-47
2022/11/06 04:54:00;;;;;;;2.72;1.50;;;;;;;14.98;92.37;101415.75;4970259;28;20038;-48
2022/11/06 04:56:31;;;;;;;4.18;1.13;;;;;;;14.97;92.86;101418.66;4962352;28;20523;-47
2022/11/06 04:58:57;;;;;;;3.05;1.13;;;;;;;14.86;93.42;101425.59;4956180;28;20047;-47
2022/11/06 05:01:23;;;;;;;3.30;1.42;;;;;;;14.84;93.46;101433.09;4969711;28;20026;-45
2022/11/06 05:03:49;;;;;;;2.90;0.90;;;;;;;14.88;93.25;101426.22;4970039;28;20042;-46
2022/11/06 05:06:16;;;;;;;3.00;1.30;;;;;;;14.92;93.29;101419.31;4969843;28;20033;-46
2022/11/06 05:08:42;;;;;;;4.03;0.90;;;;;;;14.81;93.28;101413.81;4971583;28;20038;-46
2022/11/06 05:11:08;;;;;;;2.45;0.90;;;;;;;14.96;92.69;101409.75;4967773;28;20023;-44
2022/11/06 05:13:34;;;;;;;3.65;0.90;;;;;;;14.91;92.80;101409.59;4956512;28;20082;-44
2022/11/06 05:16:01;;;;;;;3.45;0.90;;;;;;;14.82;93.00;101418.16;4956162;28;20031;-45
2022/11/06 05:18:27;;;;;;;3.55;1.15;;;;;;;14.79;93.21;101406.78;4955583;28;20104;-47
2022/11/06 05:22:56;;;;;;;4.88;1.10;;;;;;;14.70;94.25;101402.72;4962206;28;20039;-47
2022/11/06 05:23:40;;;;;;;3.83;1.00;;;;;;;14.93;93.06;101402.09;4973331;28;20042;-46
2022/11/06 05:26:07;;;;;;;5.43;1.27;;;;;;;14.80;93.66;101404.91;4967330;28;20123;-47
2022/11/06 05:28:33;;;;;;;3.83;0.95;;;;;;;14.87;93.55;101396.78;4972821;28;20062;-47
2022/11/06 05:31:00;;;;;;;2.47;1.30;;;;;;;14.84;93.16;101392.66;4957693;28;20035;-45
2022/11/06 05:33:26;;;;;;;8.32;1.40;;;;;;;14.90;92.68;101402.56;4973387;28;20023;-47
2022/11/06 05:35:52;;;;;;;4.63;1.10;;;;;;;14.86;92.42;101397.81;4972286;28;20491;-45
2022/11/06 05:38:18;;;;;;;4.88;1.35;;;;;;;14.83;92.54;101390.19;4974066;28;20129;-48
2022/11/06 05:40:45;;;;;;;3.67;1.48;;;;;;;14.80;92.79;101388.75;4968762;28;20023;-46
2022/11/06 05:43:12;;;;;;;3.08;1.80;;;;;;;14.78;92.91;101398.94;4964459;28;20027;-50
2022/11/06 05:45:38;;;;;;;2.75;2.00;;;;;;;14.81;92.46;101393.09;4966077;28;20031;-49
2022/11/06 05:48:04;;;;;;;5.28;2.35;;;;;;;14.70;92.45;101394.63;4961506;28;20062;-50
2022/11/06 05:50:30;;;;;;;3.90;2.60;;;;;;;14.82;92.10;101402.81;4967894;28;20030;-50
2022/11/06 05:52:59;;;;;;;5.78;2.60;;;;;;;14.77;92.18;101402.69;4955972;28;20111;-47
2022/11/06 05:55:25;;;;;;;4.55;2.88;;;;;;;14.72;92.40;101402.50;4955647;28;20090;-47
2022/11/06 05:57:51;;;;;;;5.68;3.10;;;;;;;14.74;92.21;101401.22;4972641;28;20058;-45
2022/11/06 06:00:18;;;;;;;9.40;3.17;;;;;;;14.63;92.61;101401.13;4956760;28;20032;-47
2022/11/06 06:02:44;;;;;;;6.93;2.80;;;;;;;14.44;93.04;101403.72;4969801;28;20558;-45
2022/11/06 06:05:10;;;;;;;6.55;2.78;;;;;;;14.29;93.22;101403.19;4971303;28;20081;-47
2022/11/06 06:07:36;;;;;;;5.70;2.42;;;;;;;14.44;92.21;101397.50;4970185;28;20031;-44
2022/11/06 06:10:03;;;;;;;3.80;2.65;;;;;;;14.39;92.26;101400.84;4959503;28;20034;-45
2022/11/06 06:12:29;;;;;;;4.40;2.70;;;;;;;14.40;92.44;101397.09;4965121;28;20035;-49
2022/11/06 06:14:56;;;;;;;5.57;3.63;;;;;;;14.41;92.00;101397.94;4973615;28;20034;-49
2022/11/06 06:17:22;;;;;;;7.68;3.42;;;;;;;14.37;92.12;101391.31;4968732;28;20038;-46
2022/11/06 06:19:48;;;;;;;8.02;3.97;;;;;;;14.29;92.36;101402.38;4964863;28;20057;-44
2022/11/06 06:22:14;;;;;;;6.95;4.00;;;;;;;14.27;91.90;101397.22;4964886;28;20042;-48
2022/11/06 06:24:41;;;;;;;6.25;4.15;;;;;;;14.39;91.97;101392.78;4962401;28;20070;-46
2022/11/06 06:27:07;;;;;;;6.80;3.85;;;;;;;14.42;91.31;101400.41;4962334;28;20078;-48
2022/11/06 06:29:33;;;;;;;7.72;4.18;;;;;;;14.27;92.06;101398.03;4968650;28;20113;-45
2022/11/06 06:31:59;;;;;;;6.20;4.00;;;;;;;14.30;91.88;101394.06;4971397;28;20039;-49
2022/11/06 06:34:25;;;;;;;4.40;2.90;;;;;;;14.17;92.04;101394.16;4956344;28;20035;-50
2022/11/06 06:36:53;;;;;;;4.10;3.30;;;;;;;14.22;92.84;101403.25;4971218;28;20391;-46
2022/11/06 06:39:19;;;;;;;4.03;2.88;;;;;;;14.21;92.25;101393.50;4954211;28;20031;-48
2022/11/06 06:41:46;;;;;;;3.10;2.25;;;;;;;14.29;91.98;101395.13;4962019;28;20054;-45
2022/11/06 06:44:13;;;;;;;5.80;2.63;;;;;;;14.12;92.27;101397.50;4973166;28;20067;-47
2022/11/06 06:46:39;;;;;;;4.43;2.95;;;;;;;14.04;93.43;101391.53;4968394;28;20514;-47
2022/11/06 06:49:06;;;;;;;7.60;3.42;;;;;;;13.91;94.04;101381.66;4972907;28;20038;-46
2022/11/06 06:51:32;;;;;;;4.47;2.95;;;;;;;14.07;92.89;101388.41;4971593;28;20027;-47
2022/11/06 06:53:59;;;;;;;4.35;2.85;;;;;;;14.16;92.30;101389.81;4966361;28;20023;-45
2022/11/06 06:56:25;;;;;;;7.05;2.78;;;;;;;14.06;92.38;101395.66;4963603;28;20114;-46
2022/11/06 06:58:54;;;;;;;6.22;3.45;;;;;;;14.21;91.09;101395.34;4972967;28;20138;-46
2022/11/06 07:01:20;;;;;;;10.57;2.53;;;;;;;14.11;90.76;101397.72;4970026;28;20472;-46
2022/11/06 07:03:46;;;;;;;3.88;2.38;;;;;;;13.95;92.13;101399.03;4961859;28;20105;-43
2022/11/06 07:06:13;;;;;;;4.78;2.33;;;;;;;14.05;91.75;101398.56;4964886;28;20437;-46
2022/11/06 07:08:39;;;;;;;19.55;2.75;;;;;;;14.08;90.95;101388.19;4961914;28;20058;-46
2022/11/06 07:11:07;;;;;;;11.50;2.92;;;;;;;14.20;90.47;101399.09;4956808;28;20023;-46
2022/11/06 07:13:34;;;;;;;7.38;2.47;;;;;;;14.19;90.58;101384.00;4961023;28;20081;-49
2022/11/06 07:16:06;;;;;;;8.68;2.42;;;;;;;14.20;90.10;101385.63;4966710;28;21497;-48
2022/11/06 07:18:33;;;;;;;6.45;2.35;;;;;;;14.18;90.13;101387.72;4971460;28;20154;-46
2022/11/06 07:21:07;;;;;;;12.13;2.80;;;;;;;14.04;90.64;101370.00;4955500;28;20114;-45
2022/11/06 07:23:35;;;;;;;16.38;2.92;;;;;;;13.97;90.82;101373.53;4953863;28;20205;-46
2022/11/06 07:26:01;;;;;;;14.90;2.92;;;;;;;13.83;91.29;101374.66;4957453;28;20078;-46
2022/11/06 07:28:28;;;;;;;25.38;3.38;;;;;;;13.80;91.10;101369.69;4958567;28;20035;-46
2022/11/06 07:31:01;;;;;;;21.48;3.10;;;;;;;13.83;91.21;101374.66;4970216;28;20030;-46
2022/11/06 07:33:28;;;;;;;35.10;3.90;;;;;;;13.78;90.85;101377.19;4972773;28;20117;-50
2022/11/06 07:35:54;;;;;;;22.27;3.15;;;;;;;13.84;91.19;101379.00;4967785;28;20023;-46
2022/11/06 07:38:20;;;;;;;6.50;2.50;;;;;;;13.82;90.87;101377.56;4968497;28;20515;-46
2022/11/06 07:40:47;;;;;;;4.53;2.30;;;;;;;13.81;90.85;101384.81;4966197;28;20106;-47
2022/11/06 07:43:13;;;;;;;5.93;2.67;;;;;;;13.88;89.91;101391.00;4970441;28;20147;-46
2022/11/06 07:45:39;;;;;;;4.88;2.83;;;;;;;13.86;89.70;101389.53;4971592;28;20034;-46
2022/11/06 07:48:06;;;;;;;6.70;3.25;;;;;;;13.98;88.81;101390.50;4954870;28;20066;-47
2022/11/06 07:50:32;;;;;;;5.47;2.67;;;;;;;13.95;88.76;101388.28;4956414;28;20089;-47
2022/11/06 07:53:02;;;;;;;4.75;2.65;;;;;;;13.81;89.28;101390.19;4968419;28;20038;-46
2022/11/06 07:55:28;;;;;;;7.57;2.88;;;;;;;13.86;88.61;101385.00;4958542;28;20023;-47
2022/11/06 07:57:54;;;;;;;2.95;2.30;;;;;;;13.98;87.45;101371.69;4978855;23;20530;-46
2022/11/06 08:00:20;;;;;;;6.07;2.10;;;;;;;13.91;86.65;101379.78;4979756;28;20049;-47
2022/11/06 08:02:51;;;;;;;8.90;2.80;;;;;;;13.86;86.55;101390.38;4978782;28;20030;-50
2022/11/06 08:05:18;;;;;;;7.97;1.70;;;;;;;13.78;85.28;101382.56;4971191;28;20591;-46
2022/11/06 08:07:44;;;;;;;8.77;2.35;;;;;;;13.70;80.74;101374.72;4970641;28;20026;-47
2022/11/06 08:10:10;;;;;;;5.15;1.60;;;;;;;13.59;79.87;101384.28;4972278;28;20031;-46
2022/11/06 08:12:36;;;;;;;6.95;2.30;;;;;;;13.55;79.38;101377.69;4972605;28;20391;-47
2022/11/06 08:15:03;;;;;;;7.22;1.90;;;;;;;13.37;78.82;101383.72;4969912;28;20031;-47
2022/11/06 08:17:29;;;;;;;5.97;1.70;;;;;;;13.41;77.14;101382.25;4972650;28;20038;-50
2022/11/06 08:19:56;;;;;;;6.63;1.77;;;;;;;13.31;76.77;101379.19;4974511;28;20034;-45
2022/11/06 08:22:22;;;;;;;8.80;2.03;;;;;;;13.29;76.99;101369.69;4974613;28;20130;-45
2022/11/06 08:24:48;;;;;;;10.07;2.22;;;;;;;13.39;75.78;101376.28;4975336;28;20053;-51
2022/11/06 08:27:14;;;;;;;6.82;1.92;;;;;;;13.31;75.48;101365.75;4986833;28;20031;-51
2022/11/06 08:29:40;;;;;;;6.10;2.40;;;;;;;13.21;74.09;101365.34;4982655;28;20106;-50
2022/11/06 08:32:06;;;;;;;7.72;1.73;;;;;;;13.23;72.70;101363.28;4984832;28;20023;-47
2022/11/06 08:34:34;;;;;;;7.57;1.75;;;;;;;13.12;70.24;101355.84;4989866;28;20586;-46
2022/11/06 08:37:01;;;;;;;5.82;1.95;;;;;;;13.08;70.61;101349.22;4992400;28;20391;-45
2022/11/06 08:39:27;;;;;;;8.20;1.98;;;;;;;12.80;69.13;101355.69;4975683;28;20031;-45
2022/11/06 08:41:53;;;;;;;7.10;1.88;;;;;;;12.75;68.77;101360.03;4975904;28;20608;-46
2022/11/06 08:44:19;;;;;;;8.30;1.70;;;;;;;12.98;65.72;101351.53;4976112;28;20041;-45
2022/11/06 08:46:48;;;;;;;10.27;1.85;;;;;;;13.02;64.81;101355.44;4975566;28;20023;-48
2022/11/06 08:49:14;;;;;;;8.07;1.65;;;;;;;12.78;63.79;101347.00;4989652;28;20027;-47
2022/11/06 08:51:40;;;;;;;5.10;1.95;;;;;;;12.76;64.21;101354.44;4979547;28;20034;-48
2022/11/06 08:54:06;;;;;;;10.48;1.90;;;;;;;12.82;64.25;101342.03;4975153;28;20494;-46
2022/11/06 08:56:33;;;;;;;9.55;2.35;;;;;;;12.89;63.00;101341.00;4975343;28;20431;-46
2022/11/06 08:58:59;;;;;;;16.45;2.58;;;;;;;12.77;63.21;101347.19;4975560;28;20404;-45
2022/11/06 09:01:25;;;;;;;6.90;1.83;;;;;;;12.82;63.72;101344.72;4973695;28;20027;-46
2022/11/06 09:03:52;;;;;;;5.78;2.13;;;;;;;12.91;63.53;101343.47;4975599;28;20043;-46
2022/11/06 09:06:18;;;;;;;12.57;2.45;;;;;;;12.80;63.92;101330.69;4975432;28;20034;-49
2022/11/06 09:08:44;;;;;;;9.57;2.90;;;;;;;12.59;64.23;101329.03;4968208;28;20407;-45
2022/11/06 09:11:10;;;;;;;6.43;1.67;;;;;;;12.67;64.32;101321.59;4963968;28;20042;-45
2022/11/06 09:13:37;;;;;;;8.55;2.22;;;;;;;12.68;65.06;101320.56;4975279;28;20023;-47
2022/11/06 09:16:03;;;;;;;14.50;2.78;;;;;;;12.81;62.30;101321.56;4975150;28;20089;-46
2022/11/06 09:18:29;;;;;;;10.57;2.35;;;;;;;12.63;63.56;101314.16;4962548;28;20034;-47
2022/11/06 09:20:56;;;;;;;14.65;3.28;;;;;;;12.58;64.12;101311.28;4969713;28;20674;-48
2022/11/06 09:23:23;;;;;;;17.85;2.55;;;;;;;12.54;64.69;101310.84;4975180;28;20062;-46
2022/11/06 09:25:49;;;;;;;7.55;2.40;;;;;;;12.55;64.70;101309.03;4958495;28;20027;-45
2022/11/06 09:28:15;;;;;;;7.45;2.30;;;;;;;12.37;65.52;101315.81;4975365;28;21660;-48
2022/11/06 09:30:42;;;;;;;9.40;2.42;;;;;;;12.46;64.91;101313.75;4975259;28;20031;-45
2022/11/06 09:33:08;;;;;;;9.27;2.50;;;;;;;12.48;62.63;101313.56;4978530;28;20474;-46
2022/11/06 09:35:35;;;;;;;10.25;2.28;;;;;;;12.56;62.75;101316.03;4974887;28;20035;-46
2022/11/06 09:38:14;;;;;;;13.38;2.38;;;;;;;12.47;62.08;101312.72;4970926;28;20039;-45
2022/11/06 09:40:52;;;;;;;8.30;2.35;;;;;;;12.29;62.83;101323.25;4975041;28;20038;-45
2022/11/06 09:43:44;;;;;;;13.43;2.67;;;;;;;12.09;62.40;101317.84;4975113;28;20027;-45
2022/11/06 09:46:23;;;;;;;11.30;2.22;;;;;;;11.94;62.86;101319.88;4973808;28;20039;-45
2022/11/06 09:49:11;;;;;;;11.07;2.55;;;;;;;11.98;62.94;101324.66;4973739;28;20383;-46
2022/11/06 09:51:40;;;;;;;10.48;2.67;;;;;;;12.10;62.84;101330.25;4969905;28;20034;-44
2022/11/06 09:54:12;;;;;;;10.55;2.15;;;;;;;11.87;65.02;101331.44;4973585;28;20450;-44
2022/11/06 09:56:40;;;;;;;11.15;2.50;;;;;;;11.87;65.14;101326.06;4974000;28;20054;-44
2022/11/06 09:59:13;;;;;;;14.68;3.00;;;;;;;11.83;65.18;101322.16;4972603;28;20047;-44
2022/11/06 10:01:50;;;;;;;11.18;2.70;;;;;;;11.70;66.01;101319.38;4963410;28;20526;-45
2022/11/06 10:04:40;;;;;;;9.13;2.88;;;;;;;11.78;66.35;101331.81;4974565;28;20078;-44
2022/11/06 10:07:29;;;;;;;13.93;2.60;;;;;;;11.80;67.10;101319.00;4974310;28;20364;-45
2022/11/06 10:09:56;;;;;;;9.60;2.40;;;;;;;11.89;66.52;101318.66;4973073;28;20035;-45
2022/11/06 10:12:46;;;;;;;16.48;2.83;;;;;;;11.75;67.89;101322.28;4973379;28;20057;-46
2022/11/06 10:15:30;;;;;;;17.95;3.28;;;;;;;11.88;67.33;101310.78;4974487;28;20476;-46
2022/11/06 10:18:23;;;;;;;17.00;3.20;;;;;;;11.74;67.74;101309.91;4973721;28;20472;-46
2022/11/06 10:21:21;;;;;;;11.43;2.85;;;;;;;11.83;67.82;101310.59;4957724;28;20042;-45
2022/11/06 10:23:58;;;;;;;15.23;3.00;;;;;;;11.73;68.07;101308.28;4972387;28;20043;-45
2022/11/06 10:26:50;;;;;;;17.63;3.28;;;;;;;11.86;68.05;101300.28;4974149;28;20038;-48
2022/11/06 10:29:42;;;;;;;17.23;3.03;;;;;;;11.89;67.55;101302.56;4973444;28;20037;-47
2022/11/06 10:32:31;;;;;;;8.25;2.50;;;;;;;11.83;67.49;101297.19;4980024;28;20030;-50
2022/11/06 10:35:16;;;;;;;10.98;2.55;;;;;;;11.61;68.57;101291.13;4982349;28;20038;-46
2022/11/06 10:38:16;;;;;;;12.07;2.95;;;;;;;11.75;68.30;101294.66;4973331;28;20460;-44
2022/11/06 10:40:47;;;;;;;15.25;3.47;;;;;;;11.72;68.09;101293.22;4960315;28;20500;-47
2022/11/06 10:43:39;;;;;;;11.48;2.85;;;;;;;11.68;68.54;101283.91;4973735;28;20376;-47
2022/11/06 10:46:17;;;;;;;12.63;2.90;;;;;;;11.71;68.24;101291.53;4980407;28;20485;-45
2022/11/06 10:48:48;;;;;;;12.73;2.95;;;;;;;11.81;68.28;101292.00;4972505;28;20042;-45
2022/11/06 10:51:17;;;;;;;12.93;2.92;;;;;;;11.75;68.00;101295.47;4986859;28;20030;-47
2022/11/06 10:54:13;;;;;;;9.80;2.97;;;;;;;11.70;68.39;101291.75;4977066;28;20161;-47
2022/11/06 10:57:02;;;;;;;11.25;2.55;;;;;;;11.74;68.70;101290.31;4950501;28;20043;-51
2022/11/06 10:59:29;;;;;;;12.73;3.25;;;;;;;11.72;68.34;101282.50;4972964;28;20050;-49
2022/11/06 11:01:55;;;;;;;11.05;2.88;;;;;;;11.64;68.21;101279.97;4958282;28;20036;-48
2022/11/06 11:04:21;;;;;;;7.82;2.55;;;;;;;11.62;68.60;101287.41;4973317;28;20117;-47
2022/11/06 11:06:48;;;;;;;15.02;2.97;;;;;;;11.57;68.78;101304.09;4973332;28;20033;-50
2022/11/06 11:09:31;;;;;;;12.98;2.50;;;;;;;11.58;68.50;101300.38;4977893;28;20503;-51
2022/11/06 11:11:58;;;;;;;10.68;2.53;;;;;;;11.75;67.81;101297.34;4974823;28;20038;-50
2022/11/06 11:14:30;;;;;;;10.27;3.10;;;;;;;11.59;68.25;101296.66;4971906;28;20026;-50
2022/11/06 11:17:01;;;;;;;11.75;3.25;;;;;;;11.49;68.98;101292.72;4972802;28;20059;-45
2022/11/06 11:19:40;;;;;;;10.70;2.95;;;;;;;11.43;68.81;101299.69;4970525;28;20053;-50
2022/11/06 11:22:15;;;;;;;11.63;3.00;;;;;;;11.53;69.11;101310.06;4972173;28;20459;-48
2022/11/06 11:25:01;;;;;;;11.25;3.03;;;;;;;11.49;69.27;101311.47;4976900;28;20030;-51
2022/11/06 11:27:46;;;;;;;14.80;3.45;;;;;;;11.14;70.22;101306.16;4974528;28;20031;-50
2022/11/06 11:30:25;;;;;;;12.43;3.08;;;;;;;11.55;69.49;101308.00;4971689;28;20042;-49
2022/11/06 11:32:52;;;;;;;15.00;2.88;;;;;;;11.32;70.13;101302.94;4973370;28;20085;-46
2022/11/06 11:35:30;;;;;;;11.63;3.00;;;;;;;11.29;70.56;101296.16;4973025;28;20031;-48
2022/11/06 11:38:10;;;;;;;13.77;2.60;;;;;;;11.27;70.44;101298.22;4972681;28;20054;-48
2022/11/06 11:40:38;;;;;;;10.80;2.65;;;;;;;11.23;70.69;101291.59;4973056;28;20027;-45
2022/11/06 11:43:19;;;;;;;15.68;3.22;;;;;;;11.06;71.73;101295.63;4972638;28;20534;-45
2022/11/06 11:46:03;;;;;;;14.70;3.00;;;;;;;11.26;70.78;101291.19;4972371;28;20027;-46
2022/11/06 11:48:46;;;;;;;15.80;3.10;;;;;;;11.42;70.22;101279.28;4957354;28;20069;-47
2022/11/06 11:51:24;;;;;;;10.25;2.83;;;;;;;11.45;69.82;101259.31;4975840;28;20038;-49
2022/11/06 11:53:54;;;;;;;12.60;3.10;;;;;;;11.58;68.96;101256.66;4977977;28;20427;-50
2022/11/06 11:56:21;;;;;;;10.57;2.67;;;;;;;11.39;70.26;101265.47;4979175;28;20412;-48
2022/11/06 11:58:54;;;;;;;13.23;2.55;;;;;;;11.44;70.29;101268.34;4989268;28;20077;-47
2022/11/06 12:01:34;;;;;;;21.30;4.05;;;;;;;11.34;71.07;101261.53;4984432;28;20105;-44